Time;durP1;ratioP1;P1;durP2;ratioP2;P2;SDS_P1;SDS_P2;PMS_P1;PMS_P2;Temp;Humidity;BMP_temperature;BMP_pressure;BME280_temperature;BME280_humidity;BME280_pressure;Samples;Min_cycle;Max_cycle;Signal;HPM_P1;HPM_P2
2022/10/24 00:00:01;;;;;;;8.52;4.88;;;14.20;99.90;;;;;;5009094;28;20027;-74
2022/10/24 00:02:26;;;;;;;8.52;5.28;;;14.20;99.90;;;;;;5005627;28;20033;-73
2022/10/24 00:04:52;;;;;;;10.38;4.82;;;14.10;99.90;;;;;;5028846;28;20040;-74
2022/10/24 00:07:18;;;;;;;7.60;4.32;;;14.20;99.90;;;;;;5015228;28;20025;-74
2022/10/24 00:09:43;;;;;;;11.23;5.55;;;14.20;99.90;;;;;;5028612;28;20466;-74
2022/10/24 00:12:09;;;;;;;12.48;5.13;;;14.20;99.90;;;;;;4988398;28;20023;-73
2022/10/24 00:14:35;;;;;;;9.95;4.35;;;14.10;99.90;;;;;;5008938;28;20037;-73
2022/10/24 00:17:01;;;;;;;7.32;4.25;;;14.20;99.90;;;;;;5004610;28;20034;-74
2022/10/24 00:19:26;;;;;;;9.65;4.78;;;14.20;99.90;;;;;;5002027;28;20476;-74
2022/10/24 00:21:52;;;;;;;9.25;4.20;;;14.10;99.90;;;;;;5006801;28;20105;-74
2022/10/24 00:24:17;;;;;;;8.35;4.97;;;14.10;99.90;;;;;;5021663;28;20387;-74
2022/10/24 00:26:43;;;;;;;7.68;4.47;;;14.10;99.90;;;;;;5008586;28;20488;-74
2022/10/24 00:29:09;;;;;;;14.30;4.53;;;13.90;99.90;;;;;;5001867;28;20480;-73
2022/10/24 00:31:35;;;;;;;7.05;4.47;;;13.90;99.90;;;;;;4988432;28;20026;-74
2022/10/24 00:34:01;;;;;;;9.40;4.18;;;13.90;99.90;;;;;;5010847;28;20538;-73
2022/10/24 00:36:27;;;;;;;7.65;4.25;;;14.00;99.90;;;;;;5014886;28;20041;-73
2022/10/24 00:38:53;;;;;;;9.57;3.92;;;14.00;99.90;;;;;;5028154;28;20104;-73
2022/10/24 00:41:21;;;;;;;8.80;4.30;;;14.00;99.90;;;;;;4997270;28;20103;-73
2022/10/24 00:43:46;;;;;;;6.70;3.05;;;14.10;99.90;;;;;;5001600;28;20033;-73
2022/10/24 00:46:13;;;;;;;12.18;3.50;;;14.20;99.90;;;;;;5004946;28;20030;-73
2022/10/24 00:48:40;;;;;;;9.07;3.60;;;14.20;99.90;;;;;;5008167;28;20028;-74
2022/10/24 00:51:23;;;;;;;10.07;3.65;;;14.20;99.90;;;;;;5005169;28;20087;-74
2022/10/24 00:53:51;;;;;;;8.57;3.30;;;14.20;99.90;;;;;;4978259;28;20030;-74
2022/10/24 00:56:20;;;;;;;11.77;3.78;;;14.20;99.90;;;;;;5020587;28;20422;-73
2022/10/24 00:58:47;;;;;;;10.50;3.35;;;14.20;99.90;;;;;;5001433;28;20029;-73
2022/10/24 01:01:13;;;;;;;9.57;2.85;;;14.30;99.90;;;;;;5001292;28;20381;-73
2022/10/24 01:03:39;;;;;;;10.93;2.90;;;14.30;99.90;;;;;;5007787;28;20030;-73
2022/10/24 01:06:35;;;;;;;6.80;2.78;;;14.30;99.90;;;;;;5007651;28;20068;-73
2022/10/24 01:09:16;;;;;;;7.45;3.08;;;14.30;99.90;;;;;;5005535;28;20053;-73
2022/10/24 01:11:53;;;;;;;7.45;3.20;;;14.40;99.90;;;;;;5001222;28;20033;-73
2022/10/24 01:14:33;;;;;;;10.90;3.20;;;14.40;99.90;;;;;;5001239;28;20498;-72
2022/10/24 01:17:31;;;;;;;6.05;2.58;;;14.40;99.90;;;;;;4986918;28;20117;-73
2022/10/24 01:20:07;;;;;;;8.15;2.58;;;14.50;99.90;;;;;;5000631;28;20045;-74
2022/10/24 01:23:05;;;;;;;7.88;2.50;;;14.50;99.90;;;;;;4985116;28;20108;-74
2022/10/24 01:25:50;;;;;;;6.07;2.50;;;14.40;99.90;;;;;;5020850;28;20388;-76
2022/10/24 01:28:26;;;;;;;8.85;2.35;;;14.40;99.90;;;;;;5005036;28;20120;-75
2022/10/24 01:31:08;;;;;;;12.98;2.80;;;14.40;99.90;;;;;;5014804;28;20112;-75
2022/10/24 01:33:44;;;;;;;8.07;2.60;;;14.40;99.90;;;;;;4988862;28;20037;-75
2022/10/24 01:36:14;;;;;;;5.65;2.70;;;14.50;99.90;;;;;;5000850;28;20018;-75
2022/10/24 01:38:56;;;;;;;9.95;2.90;;;14.50;99.90;;;;;;4983005;28;20054;-75
2022/10/24 01:41:25;;;;;;;7.88;2.67;;;14.50;99.90;;;;;;4996193;28;20109;-75
2022/10/24 01:44:01;;;;;;;7.57;2.45;;;14.60;99.90;;;;;;4992262;28;20388;-74
2022/10/24 01:46:32;;;;;;;9.07;2.28;;;14.60;99.90;;;;;;5006143;28;20022;-74
2022/10/24 01:49:03;;;;;;;7.55;2.55;;;14.60;99.90;;;;;;4989708;28;20037;-75
2022/10/24 01:51:32;;;;;;;6.80;2.35;;;14.50;99.90;;;;;;5007447;28;20021;-74
2022/10/24 01:53:58;;;;;;;6.95;2.05;;;14.50;99.90;;;;;;5006438;28;20030;-75
2022/10/24 01:56:27;;;;;;;5.18;2.38;;;14.40;99.90;;;;;;5006912;28;20030;-74
2022/10/24 01:59:02;;;;;;;12.70;2.30;;;14.40;99.90;;;;;;4983830;28;20149;-74
2022/10/24 02:01:28;;;;;;;6.88;2.17;;;14.40;99.90;;;;;;5000116;28;20034;-74
2022/10/24 02:03:59;;;;;;;6.88;2.50;;;14.50;99.90;;;;;;5004677;28;20045;-74
2022/10/24 02:06:30;;;;;;;5.80;2.00;;;14.50;99.90;;;;;;5006801;28;20104;-74
2022/10/24 02:09:00;;;;;;;5.95;2.10;;;14.50;99.90;;;;;;4986130;28;20029;-73
2022/10/24 02:11:25;;;;;;;5.88;2.08;;;14.50;99.90;;;;;;5026477;28;20065;-74
2022/10/24 02:14:11;;;;;;;7.63;1.83;;;14.60;99.90;;;;;;4995625;28;20058;-74
2022/10/24 02:16:37;;;;;;;7.55;2.30;;;14.60;99.90;;;;;;4982528;28;20026;-73
2022/10/24 02:19:03;;;;;;;4.43;1.83;;;14.60;99.90;;;;;;4994518;28;20033;-73
2022/10/24 02:21:53;;;;;;;5.88;1.85;;;14.70;99.90;;;;;;5000560;28;20100;-75
2022/10/24 02:24:27;;;;;;;9.65;2.53;;;14.70;99.90;;;;;;4982184;28;20026;-73
2022/10/24 02:27:10;;;;;;;9.10;2.10;;;14.70;99.90;;;;;;5001254;28;20030;-75
2022/10/24 02:29:43;;;;;;;6.00;2.25;;;14.70;99.90;;;;;;5000373;28;20034;-75
2022/10/24 02:32:15;;;;;;;6.25;2.20;;;14.70;99.90;;;;;;4999839;28;20019;-74
2022/10/24 02:34:42;;;;;;;8.52;2.15;;;14.70;99.90;;;;;;5004157;28;20392;-74
2022/10/24 02:37:10;;;;;;;6.95;1.80;;;14.70;99.90;;;;;;4988602;28;20645;-74
2022/10/24 02:39:38;;;;;;;6.15;1.60;;;14.70;99.90;;;;;;5002366;28;20026;-74
2022/10/24 02:42:05;;;;;;;7.07;1.95;;;14.70;99.90;;;;;;5009908;28;20026;-73
2022/10/24 02:44:32;;;;;;;6.97;1.63;;;14.80;99.90;;;;;;4985179;28;20028;-74
2022/10/24 02:47:02;;;;;;;5.43;1.52;;;14.70;99.90;;;;;;5002819;28;20021;-74
2022/10/24 02:49:28;;;;;;;12.75;2.22;;;14.70;99.90;;;;;;5021956;28;20022;-73
2022/10/24 02:51:54;;;;;;;5.88;1.83;;;14.70;99.90;;;;;;5002804;28;20030;-74
2022/10/24 02:54:19;;;;;;;4.53;1.73;;;14.60;99.90;;;;;;5022075;28;20021;-74
2022/10/24 02:56:50;;;;;;;7.18;1.92;;;14.70;99.90;;;;;;4999272;28;20537;-74
2022/10/24 02:59:15;;;;;;;5.43;2.08;;;14.60;99.90;;;;;;5001453;28;20554;-74
2022/10/24 03:01:41;;;;;;;7.80;1.65;;;14.60;99.90;;;;;;5014798;28;20029;-73
2022/10/24 03:04:06;;;;;;;5.40;1.77;;;14.50;99.90;;;;;;5021124;28;20030;-74
2022/10/24 03:06:32;;;;;;;7.93;1.88;;;14.60;99.90;;;;;;4999036;28;20087;-75
2022/10/24 03:08:58;;;;;;;4.97;1.65;;;14.60;99.90;;;;;;5001109;28;20027;-74
2022/10/24 03:11:23;;;;;;;6.53;2.05;;;14.90;99.90;;;;;;4979542;28;20033;-74
2022/10/24 03:13:50;;;;;;;8.35;1.92;;;14.60;99.90;;;;;;5001260;28;20080;-73
2022/10/24 03:16:15;;;;;;;5.75;1.85;;;14.60;99.90;;;;;;5005880;28;20032;-74
2022/10/24 03:18:41;;;;;;;7.63;2.13;;;14.60;99.90;;;;;;5000925;28;20027;-74
2022/10/24 03:21:07;;;;;;;9.63;2.20;;;14.60;99.90;;;;;;5005754;28;20088;-74
2022/10/24 03:23:32;;;;;;;7.45;1.92;;;14.60;99.90;;;;;;4985859;28;20399;-74
2022/10/24 03:25:58;;;;;;;5.72;1.70;;;14.70;99.90;;;;;;4998783;28;20484;-75
2022/10/24 03:28:24;;;;;;;4.78;1.65;;;14.70;99.90;;;;;;4983527;28;20570;-74
2022/10/24 03:30:49;;;;;;;9.32;2.25;;;14.60;99.90;;;;;;5005352;28;20030;-74
2022/10/24 03:33:15;;;;;;;5.32;2.30;;;14.60;99.90;;;;;;5002914;28;20026;-74
2022/10/24 03:35:41;;;;;;;9.07;2.00;;;14.70;99.90;;;;;;4984907;28;20029;-75
2022/10/24 03:38:07;;;;;;;5.65;1.98;;;14.60;99.90;;;;;;5003318;28;20497;-74
2022/10/24 03:40:33;;;;;;;5.88;2.20;;;14.60;99.90;;;;;;4985102;28;20037;-75
2022/10/24 03:42:59;;;;;;;8.80;2.17;;;14.60;99.90;;;;;;5021056;28;20029;-75
2022/10/24 03:45:24;;;;;;;6.20;1.90;;;14.70;99.90;;;;;;5024998;28;20029;-74
2022/10/24 03:47:50;;;;;;;9.13;1.77;;;14.70;99.90;;;;;;4983876;28;20033;-75
2022/10/24 03:50:16;;;;;;;5.82;2.33;;;14.70;99.90;;;;;;5022229;28;20034;-75
2022/10/24 03:52:41;;;;;;;6.72;2.05;;;14.60;99.90;;;;;;5001823;28;20380;-74
2022/10/24 03:55:07;;;;;;;8.35;2.47;;;14.60;99.90;;;;;;4987684;28;20104;-75
2022/10/24 03:57:33;;;;;;;8.13;2.05;;;14.60;99.90;;;;;;4984390;28;20026;-74
2022/10/24 03:59:59;;;;;;;8.23;1.95;;;14.60;99.90;;;;;;5002255;28;20124;-74
2022/10/24 04:02:24;;;;;;;6.88;2.50;;;14.50;99.90;;;;;;5021322;28;20038;-74
2022/10/24 04:04:50;;;;;;;9.90;2.45;;;14.50;99.90;;;;;;4998577;28;20392;-74
2022/10/24 04:07:15;;;;;;;7.18;2.25;;;14.50;99.90;;;;;;5001469;28;20030;-75
2022/10/24 04:09:41;;;;;;;6.93;1.95;;;14.60;99.90;;;;;;5005180;28;20041;-74
2022/10/24 04:12:06;;;;;;;9.88;2.17;;;14.50;99.90;;;;;;4984658;28;20025;-74
2022/10/24 04:14:32;;;;;;;5.15;1.77;;;14.50;99.90;;;;;;4998533;28;20018;-74
2022/10/24 04:16:58;;;;;;;3.38;1.55;;;14.60;99.90;;;;;;5001173;28;20559;-73
2022/10/24 04:19:23;;;;;;;8.05;1.95;;;14.60;99.90;;;;;;5005026;28;20027;-74
2022/10/24 04:21:49;;;;;;;3.95;1.70;;;14.70;99.90;;;;;;5013185;28;20499;-74
2022/10/24 04:24:15;;;;;;;7.20;2.05;;;14.60;99.90;;;;;;5018037;28;20053;-73
2022/10/24 04:26:40;;;;;;;5.05;2.00;;;14.60;99.90;;;;;;5018980;28;20108;-73
2022/10/24 04:29:06;;;;;;;7.15;2.08;;;14.70;99.90;;;;;;5000710;28;20026;-73
2022/10/24 04:31:31;;;;;;;9.40;2.33;;;14.70;99.90;;;;;;5021235;28;20030;-73
2022/10/24 04:33:57;;;;;;;7.18;2.00;;;14.70;99.90;;;;;;4996857;28;20071;-73
2022/10/24 04:36:23;;;;;;;7.32;1.90;;;14.70;99.90;;;;;;5001591;28;20025;-72
2022/10/24 04:38:48;;;;;;;7.47;1.92;;;14.70;99.90;;;;;;5020968;28;20026;-73
2022/10/24 04:41:14;;;;;;;5.65;1.98;;;14.70;99.90;;;;;;5022547;28;20028;-73
2022/10/24 04:43:39;;;;;;;8.02;2.10;;;14.70;99.90;;;;;;5021062;28;20407;-72
2022/10/24 04:46:05;;;;;;;9.73;2.40;;;14.60;99.90;;;;;;5025297;28;20456;-73
2022/10/24 04:48:31;;;;;;;7.57;2.20;;;14.70;99.90;;;;;;5027978;28;20025;-73
2022/10/24 04:50:57;;;;;;;6.53;2.08;;;14.70;99.90;;;;;;5023414;28;20027;-72
2022/10/24 04:53:23;;;;;;;4.82;1.80;;;14.60;99.90;;;;;;5016056;28;20026;-73
2022/10/24 04:55:48;;;;;;;8.50;2.35;;;14.60;99.90;;;;;;5004071;28;20025;-72
2022/10/24 04:58:14;;;;;;;6.78;1.88;;;14.60;99.90;;;;;;5001080;28;20030;-72
2022/10/24 05:00:42;;;;;;;8.20;2.05;;;14.60;99.90;;;;;;5006176;28;20035;-72
2022/10/24 05:03:07;;;;;;;4.22;1.90;;;14.50;99.90;;;;;;4998471;28;20053;-72
2022/10/24 05:05:33;;;;;;;7.88;2.15;;;14.60;99.90;;;;;;5003740;28;20455;-73
2022/10/24 05:07:59;;;;;;;8.48;2.38;;;14.60;99.90;;;;;;5003416;28;20030;-73
2022/10/24 05:10:24;;;;;;;7.75;2.33;;;14.50;99.90;;;;;;5007460;28;20034;-73
2022/10/24 05:12:50;;;;;;;7.35;2.22;;;14.50;99.90;;;;;;5001297;28;20023;-73
2022/10/24 05:15:17;;;;;;;6.25;2.05;;;14.50;99.90;;;;;;4987695;28;20436;-73
2022/10/24 05:17:42;;;;;;;7.72;2.40;;;14.50;99.90;;;;;;4992660;28;20026;-73
2022/10/24 05:20:09;;;;;;;4.63;2.00;;;14.50;99.90;;;;;;5004951;28;20100;-73
2022/10/24 05:22:34;;;;;;;4.03;2.10;;;14.40;99.90;;;;;;5013079;28;20118;-73
2022/10/24 05:25:00;;;;;;;8.48;2.20;;;14.40;99.90;;;;;;5024627;28;20391;-73
2022/10/24 05:27:25;;;;;;;7.25;3.10;;;14.40;99.90;;;;;;5000451;28;20042;-73
2022/10/24 05:29:52;;;;;;;11.32;5.53;;;14.40;99.90;;;;;;5004899;28;20440;-73
2022/10/24 05:32:19;;;;;;;7.43;4.15;;;14.50;99.90;;;;;;5012531;28;20476;-73
2022/10/24 05:34:45;;;;;;;10.52;6.55;;;14.40;99.90;;;;;;5024407;28;20504;-74
2022/10/24 05:37:11;;;;;;;10.13;3.25;;;14.50;99.90;;;;;;5000428;28;20098;-73
2022/10/24 05:39:36;;;;;;;12.88;7.07;;;14.40;99.90;;;;;;5005411;28;20411;-73
2022/10/24 05:42:02;;;;;;;4.60;2.10;;;14.40;99.90;;;;;;5030984;28;20100;-73
2022/10/24 05:44:28;;;;;;;12.68;4.88;;;14.50;99.90;;;;;;5004644;28;20113;-73
2022/10/24 05:46:53;;;;;;;10.38;5.05;;;14.50;99.90;;;;;;5006968;28;20030;-73
2022/10/24 05:49:20;;;;;;;7.57;2.90;;;14.50;99.90;;;;;;5003162;28;20030;-74
2022/10/24 05:51:45;;;;;;;5.82;2.50;;;14.50;99.90;;;;;;4999681;28;20030;-74
2022/10/24 05:54:11;;;;;;;6.38;2.17;;;14.50;99.90;;;;;;5003849;28;20029;-73
2022/10/24 05:56:37;;;;;;;7.70;3.13;;;14.50;99.90;;;;;;5006982;28;20109;-73
2022/10/24 05:59:03;;;;;;;8.10;2.55;;;14.50;99.90;;;;;;4985379;28;20029;-73
2022/10/24 06:01:29;;;;;;;9.93;2.50;;;14.50;99.90;;;;;;5000234;28;20396;-74
2022/10/24 06:03:55;;;;;;;6.68;3.20;;;14.50;99.90;;;;;;5005116;28;20379;-73
2022/10/24 06:06:22;;;;;;;9.75;3.33;;;14.60;99.90;;;;;;5019627;28;20560;-73
2022/10/24 06:08:48;;;;;;;8.13;2.70;;;14.60;99.90;;;;;;5023243;28;20026;-75
2022/10/24 06:11:13;;;;;;;8.18;3.97;;;14.60;99.90;;;;;;4999880;28;20079;-74
2022/10/24 06:13:39;;;;;;;7.75;2.90;;;14.70;99.90;;;;;;5004028;28;20476;-73
2022/10/24 06:16:05;;;;;;;6.85;2.67;;;14.70;99.90;;;;;;5006635;28;20543;-74
2022/10/24 06:18:31;;;;;;;6.70;3.08;;;14.70;99.90;;;;;;4984913;28;20029;-74
2022/10/24 06:21:01;;;;;;;6.88;2.63;;;14.80;99.90;;;;;;5008548;28;20025;-72
2022/10/24 06:23:27;;;;;;;7.78;2.75;;;14.80;99.90;;;;;;5003374;28;20400;-73
2022/10/24 06:25:53;;;;;;;8.75;3.45;;;14.80;99.90;;;;;;4988837;28;20023;-72
2022/10/24 06:28:18;;;;;;;9.10;4.25;;;14.80;99.90;;;;;;5037877;23;20132;-76
2022/10/24 06:30:47;;;;;;;7.40;3.53;;;14.80;99.90;;;;;;5052371;28;20029;-75
2022/10/24 06:33:12;;;;;;;8.82;3.33;;;14.90;99.90;;;;;;5034733;28;20021;-75
2022/10/24 06:35:38;;;;;;;13.23;3.25;;;14.80;99.90;;;;;;5049002;28;20441;-76
2022/10/24 06:38:03;;;;;;;9.18;4.80;;;14.90;99.90;;;;;;5040317;28;20083;-76
2022/10/24 06:40:29;;;;;;;13.57;5.03;;;14.90;99.90;;;;;;5014762;28;20057;-76
2022/10/24 06:42:55;;;;;;;15.07;5.57;;;14.90;99.90;;;;;;5032461;28;20055;-76
2022/10/24 06:45:22;;;;;;;15.07;4.80;;;14.90;99.90;;;;;;5019158;28;20558;-76
2022/10/24 06:47:48;;;;;;;10.55;4.00;;;14.90;99.90;;;;;;5032119;28;20029;-71
2022/10/24 06:50:14;;;;;;;10.70;2.65;;;14.90;99.90;;;;;;5028983;28;20022;-75
2022/10/24 06:52:40;;;;;;;5.75;1.85;;;14.90;99.90;;;;;;5022513;28;20022;-75
2022/10/24 06:55:06;;;;;;;6.60;2.50;;;15.10;99.90;;;;;;5031474;28;20033;-76
2022/10/24 06:57:31;;;;;;;12.60;4.07;;;15.00;99.90;;;;;;5022190;28;20080;-75
2022/10/24 06:59:57;;;;;;;6.88;3.28;;;14.70;99.90;;;;;;5028267;28;20021;-76
2022/10/24 07:02:22;;;;;;;13.05;4.53;;;14.50;99.90;;;;;;5014607;28;20025;-75
2022/10/24 07:04:48;;;;;;;13.70;4.20;;;14.40;99.90;;;;;;5031763;28;20029;-76
2022/10/24 07:07:19;;;;;;;12.23;4.38;;;14.20;99.90;;;;;;5031899;28;20049;-75
2022/10/24 07:09:49;;;;;;;7.30;3.30;;;14.20;99.90;;;;;;5032018;28;20050;-75
2022/10/24 07:12:15;;;;;;;8.85;3.33;;;14.10;99.90;;;;;;5031970;28;20076;-75
2022/10/24 07:14:40;;;;;;;10.73;3.55;;;14.20;99.90;;;;;;5002243;28;20123;-77
2022/10/24 07:17:06;;;;;;;9.25;3.40;;;14.20;99.90;;;;;;5016867;28;20033;-75
2022/10/24 07:19:32;;;;;;;10.13;3.80;;;14.40;99.90;;;;;;5018466;28;20046;-75
2022/10/24 07:21:58;;;;;;;12.02;3.83;;;14.20;99.90;;;;;;5014183;28;20057;-75
2022/10/24 07:24:23;;;;;;;13.77;4.70;;;14.20;99.90;;;;;;5009820;28;20471;-75
2022/10/24 07:26:49;;;;;;;10.63;4.00;;;14.10;99.90;;;;;;5011852;28;20038;-76
2022/10/24 07:29:14;;;;;;;10.30;4.50;;;14.00;99.90;;;;;;4994984;28;20026;-75
2022/10/24 07:31:40;;;;;;;12.77;3.90;;;14.00;99.90;;;;;;5022340;28;20044;-75
2022/10/24 07:34:07;;;;;;;12.95;4.05;;;14.10;99.90;;;;;;5018268;28;20029;-75
2022/10/24 07:36:33;;;;;;;10.57;3.45;;;14.10;99.90;;;;;;5021048;28;20087;-76
2022/10/24 07:38:59;;;;;;;11.32;4.55;;;14.10;99.90;;;;;;5010880;28;20022;-76
2022/10/24 07:41:27;;;;;;;13.32;4.45;;;14.00;99.90;;;;;;5031705;28;20471;-76
2022/10/24 07:43:54;;;;;;;11.93;3.97;;;14.30;99.90;;;;;;5000970;28;20033;-75
2022/10/24 07:46:20;;;;;;;13.10;4.70;;;14.00;99.90;;;;;;5031606;28;20017;-75
2022/10/24 07:48:49;;;;;;;13.05;4.05;;;14.10;99.90;;;;;;5031586;28;20037;-76
2022/10/24 07:51:15;;;;;;;10.60;4.25;;;14.10;99.90;;;;;;5031542;28;20029;-76
2022/10/24 07:53:41;;;;;;;10.27;4.45;;;14.10;99.90;;;;;;5000644;28;20024;-76
2022/10/24 07:56:10;;;;;;;10.35;3.92;;;14.20;99.90;;;;;;5013840;28;20091;-75
2022/10/24 07:58:36;;;;;;;10.93;3.95;;;14.00;99.90;;;;;;5017579;28;20036;-76
2022/10/24 08:01:04;;;;;;;10.32;3.75;;;13.90;99.90;;;;;;5013615;28;20021;-76
2022/10/24 08:03:29;;;;;;;10.77;3.80;;;13.90;99.90;;;;;;5018416;28;20026;-75
2022/10/24 08:05:55;;;;;;;8.98;4.18;;;13.90;99.90;;;;;;5001181;28;20129;-76
2022/10/24 08:08:22;;;;;;;10.18;3.90;;;13.80;99.90;;;;;;5009316;28;20049;-76
2022/10/24 08:10:47;;;;;;;14.60;3.67;;;13.80;99.90;;;;;;5030481;28;20088;-75
2022/10/24 08:13:13;;;;;;;9.65;3.55;;;13.80;99.90;;;;;;5030915;28;20030;-75
2022/10/24 08:15:38;;;;;;;10.23;3.30;;;13.70;99.90;;;;;;5020794;28;20038;-75
2022/10/24 08:18:04;;;;;;;11.65;3.50;;;13.70;99.90;;;;;;5034516;28;20025;-75
2022/10/24 08:20:30;;;;;;;7.90;3.58;;;13.70;99.90;;;;;;5017286;28;20029;-74
2022/10/24 08:22:55;;;;;;;7.72;2.88;;;13.80;99.90;;;;;;5029115;28;20461;-75
2022/10/24 08:25:21;;;;;;;7.35;3.40;;;13.70;99.90;;;;;;5033561;28;20025;-75
2022/10/24 08:27:47;;;;;;;8.07;3.85;;;13.80;99.90;;;;;;5026916;28;20055;-75
2022/10/24 08:30:13;;;;;;;10.10;4.13;;;13.90;99.90;;;;;;5029911;28;20041;-75
2022/10/24 08:32:39;;;;;;;6.63;3.67;;;14.00;99.90;;;;;;5034562;28;20096;-74
2022/10/24 08:35:06;;;;;;;8.05;2.95;;;14.00;99.90;;;;;;5034766;28;20129;-75
2022/10/24 08:37:37;;;;;;;5.82;2.70;;;14.10;99.90;;;;;;5015476;28;20076;-74
2022/10/24 08:40:08;;;;;;;5.55;2.85;;;14.10;99.90;;;;;;5028540;28;20029;-74
2022/10/24 08:42:34;;;;;;;7.78;3.40;;;14.00;99.90;;;;;;5017522;28;20029;-74
2022/10/24 08:45:00;;;;;;;6.28;2.42;;;14.00;99.90;;;;;;5034495;28;20395;-74
2022/10/24 08:47:34;;;;;;;5.07;2.40;;;13.90;99.90;;;;;;5027196;28;20041;-75
2022/10/24 08:50:27;;;;;;;6.70;2.30;;;14.00;99.90;;;;;;5010421;28;20022;-75
2022/10/24 08:53:01;;;;;;;10.32;2.75;;;14.10;99.90;;;;;;5026207;28;20021;-75
2022/10/24 08:55:54;;;;;;;7.40;2.80;;;13.90;99.90;;;;;;5025554;28;20025;-75
2022/10/24 08:58:25;;;;;;;5.60;2.58;;;14.10;99.90;;;;;;5011302;28;20033;-75
2022/10/24 09:00:55;;;;;;;5.63;2.83;;;14.00;99.90;;;;;;5007697;28;20022;-76
2022/10/24 09:03:43;;;;;;;7.07;3.97;;;14.10;99.90;;;;;;5003503;28;20026;-75
2022/10/24 09:06:19;;;;;;;7.18;2.80;;;14.20;99.90;;;;;;5009879;28;20029;-76
2022/10/24 09:08:54;;;;;;;6.90;2.08;;;14.30;99.90;;;;;;5023229;28;20423;-76
2022/10/24 09:11:36;;;;;;;6.47;2.40;;;14.20;99.90;;;;;;5031681;28;20026;-75
2022/10/24 09:14:10;;;;;;;6.10;2.20;;;14.20;99.90;;;;;;5034089;28;20479;-75
2022/10/24 09:16:38;;;;;;;8.30;2.60;;;14.20;99.90;;;;;;5014373;28;20101;-75
2022/10/24 09:19:05;;;;;;;6.63;2.33;;;14.20;99.90;;;;;;5026893;28;20017;-75
2022/10/24 09:21:30;;;;;;;4.05;2.20;;;14.30;99.90;;;;;;5021507;28;20025;-75
2022/10/24 09:23:56;;;;;;;6.45;2.17;;;14.30;99.90;;;;;;5033349;28;20033;-76
2022/10/24 09:26:29;;;;;;;4.15;1.70;;;14.30;99.90;;;;;;5020850;28;20036;-76
2022/10/24 09:28:56;;;;;;;5.63;2.30;;;14.30;99.90;;;;;;5037360;28;20099;-77
2022/10/24 09:31:25;;;;;;;3.08;1.77;;;14.40;99.90;;;;;;5038292;28;20472;-74
2022/10/24 09:33:52;;;;;;;6.07;2.25;;;14.40;99.90;;;;;;5033690;28;20454;-75
2022/10/24 09:36:20;;;;;;;5.50;1.90;;;14.40;99.90;;;;;;5006881;28;20037;-76
2022/10/24 09:38:50;;;;;;;4.65;1.85;;;14.40;99.90;;;;;;5011687;28;20036;-76
2022/10/24 09:41:23;;;;;;;6.00;1.83;;;14.40;99.90;;;;;;5033600;28;20037;-76
2022/10/24 09:43:57;;;;;;;5.57;1.90;;;14.40;99.90;;;;;;5015844;28;20479;-75
2022/10/24 09:46:44;;;;;;;6.45;2.00;;;14.40;99.90;;;;;;5015760;28;20506;-75
2022/10/24 09:49:13;;;;;;;7.70;1.90;;;14.40;99.90;;;;;;5021517;28;20105;-75
2022/10/24 09:52:00;;;;;;;13.18;6.35;;;14.40;99.90;;;;;;5002418;28;20030;-75
2022/10/24 09:54:29;;;;;;;6.25;2.72;;;14.40;99.90;;;;;;5022057;28;20053;-75
2022/10/24 09:56:57;;;;;;;4.90;3.88;;;14.60;99.90;;;;;;5026534;28;20021;-75
2022/10/24 09:59:31;;;;;;;8.45;4.50;;;14.40;99.90;;;;;;5025825;28;20028;-75
2022/10/24 10:02:23;;;;;;;5.50;3.30;;;14.50;99.90;;;;;;5020366;28;20030;-75
2022/10/24 10:05:03;;;;;;;3.50;2.15;;;14.40;99.90;;;;;;5012043;28;20040;-74
2022/10/24 10:07:32;;;;;;;3.55;1.83;;;14.30;99.90;;;;;;5032581;28;20033;-74
2022/10/24 10:10:01;;;;;;;5.32;2.55;;;14.20;99.90;;;;;;5032675;28;20034;-75
2022/10/24 10:12:39;;;;;;;5.75;3.15;;;14.20;99.90;;;;;;5015069;28;20445;-75
2022/10/24 10:15:29;;;;;;;6.18;2.80;;;14.20;99.90;;;;;;5014920;28;20026;-75
2022/10/24 10:17:59;;;;;;;5.50;2.72;;;14.20;99.90;;;;;;5032307;28;20075;-75
2022/10/24 10:20:37;;;;;;;6.90;2.55;;;14.40;99.90;;;;;;5014828;28;20033;-75
2022/10/24 10:23:24;;;;;;;8.80;3.15;;;14.40;99.90;;;;;;5032472;28;20051;-75
2022/10/24 10:26:12;;;;;;;7.47;3.63;;;14.30;99.90;;;;;;5032405;28;20025;-75
2022/10/24 10:28:50;;;;;;;6.13;2.83;;;14.30;99.90;;;;;;5014297;28;20118;-75
2022/10/24 10:31:19;;;;;;;6.55;2.38;;;14.30;99.90;;;;;;5014509;28;20391;-75
2022/10/24 10:33:55;;;;;;;7.05;2.65;;;14.40;99.90;;;;;;5032276;28;20048;-75
2022/10/24 10:36:34;;;;;;;5.63;3.00;;;14.40;99.90;;;;;;5032418;28;20080;-76
2022/10/24 10:39:14;;;;;;;6.85;2.72;;;14.40;99.90;;;;;;5031583;28;20108;-75
2022/10/24 10:41:48;;;;;;;5.45;2.55;;;14.40;99.90;;;;;;5032434;28;20026;-75
2022/10/24 10:44:26;;;;;;;7.82;3.25;;;14.40;99.90;;;;;;5032221;28;20487;-76
2022/10/24 10:46:58;;;;;;;5.93;2.75;;;14.40;99.90;;;;;;5025321;28;20029;-75
2022/10/24 10:49:30;;;;;;;6.68;2.83;;;14.40;99.90;;;;;;5014363;28;20025;-74
2022/10/24 10:51:57;;;;;;;8.05;3.20;;;14.40;99.90;;;;;;5028454;28;20033;-74
2022/10/24 10:54:51;;;;;;;5.82;2.75;;;14.40;99.90;;;;;;5023140;28;20026;-75
2022/10/24 10:57:55;;;;;;;5.22;2.72;;;14.40;99.90;;;;;;5031818;28;20021;-74
2022/10/24 11:00:38;;;;;;;4.72;2.42;;;14.50;99.90;;;;;;5003614;28;20033;-74
2022/10/24 11:03:21;;;;;;;3.95;2.15;;;14.50;99.90;;;;;;5031833;28;20048;-74
2022/10/24 11:05:53;;;;;;;4.20;2.50;;;14.50;99.90;;;;;;5031078;28;20025;-74
2022/10/24 11:08:42;;;;;;;6.28;3.10;;;14.60;99.90;;;;;;5031495;28;20501;-74
2022/10/24 11:11:21;;;;;;;5.97;3.08;;;14.70;99.90;;;;;;5014619;28;20037;-75
2022/10/24 11:13:54;;;;;;;7.40;3.08;;;14.80;99.90;;;;;;5014238;28;20653;-75
2022/10/24 11:16:30;;;;;;;8.43;3.78;;;14.80;99.90;;;;;;5031798;28;20032;-74
2022/10/24 11:19:03;;;;;;;8.80;4.80;;;15.00;99.90;;;;;;5031577;28;20041;-75
2022/10/24 11:21:32;;;;;;;12.73;3.38;;;14.90;99.90;;;;;;5028486;28;20103;-75
2022/10/24 11:24:04;;;;;;;8.15;3.80;;;15.00;99.90;;;;;;5031399;28;20033;-74
2022/10/24 11:26:40;;;;;;;6.63;3.28;;;15.10;99.90;;;;;;5031543;28;20029;-74
2022/10/24 11:29:17;;;;;;;;;;;15.10;99.90;;;;;;5031747;28;20418;-75
2022/10/24 11:31:53;;;;;;;5.93;2.25;;;15.10;99.90;;;;;;5013708;28;19913;-75
2022/10/24 11:34:34;;;;;;;;;;;15.20;99.90;;;;;;5031369;28;20112;-75
2022/10/24 11:37:06;;;;;;;6.53;2.17;;;15.20;99.90;;;;;;5016541;28;19909;-75
2022/10/24 11:39:52;;;;;;;4.50;2.45;;;15.20;99.90;;;;;;5011791;28;20101;-74
2022/10/24 11:42:36;;;;;;;5.55;2.72;;;15.30;99.90;;;;;;5029776;28;20026;-74
2022/10/24 11:45:15;;;;;;;7.22;3.13;;;15.40;99.90;;;;;;5013705;28;20026;-75
2022/10/24 11:48:00;;;;;;;5.30;2.22;;;15.50;99.90;;;;;;5024473;28;20029;-74
2022/10/24 11:50:31;;;;;;;8.50;2.90;;;15.60;99.90;;;;;;5015902;28;20116;-74
2022/10/24 11:53:13;;;;;;;5.55;2.92;;;15.70;99.90;;;;;;5035391;28;20081;-74
2022/10/24 11:55:45;;;;;;;9.57;2.95;;;15.70;99.90;;;;;;5035520;28;20083;-74
2022/10/24 11:58:15;;;;;;;8.07;3.20;;;15.80;99.90;;;;;;5017291;28;20022;-74
2022/10/24 12:01:15;;;;;;;5.65;2.60;;;15.80;99.90;;;;;;5035365;28;20052;-74
2022/10/24 12:04:17;;;;;;;5.55;2.75;;;15.80;99.90;;;;;;5035009;28;20036;-75
2022/10/24 12:07:04;;;;;;;8.18;2.85;;;15.80;99.90;;;;;;5033779;28;20034;-74
2022/10/24 12:09:51;;;;;;;5.38;2.80;;;15.80;99.90;;;;;;5001945;28;20471;-75
2022/10/24 12:12:20;;;;;;;6.00;2.60;;;15.80;99.90;;;;;;5017300;28;20033;-74
2022/10/24 12:15:06;;;;;;;6.22;2.70;;;15.80;99.90;;;;;;5035024;28;20025;-74
2022/10/24 12:17:50;;;;;;;6.55;2.75;;;15.70;99.90;;;;;;5003738;28;20087;-74
2022/10/24 12:20:19;;;;;;;6.07;2.78;;;15.70;99.90;;;;;;5034784;28;20101;-74
2022/10/24 12:22:46;;;;;;;6.47;3.30;;;15.70;99.90;;;;;;5034789;28;20025;-74
2022/10/24 12:25:36;;;;;;;8.50;3.30;;;15.70;99.90;;;;;;5017108;28;20080;-74
2022/10/24 12:28:04;;;;;;;7.82;3.85;;;15.70;99.90;;;;;;5027132;28;20032;-73
2022/10/24 12:30:33;;;;;;;7.55;4.35;;;15.70;99.90;;;;;;5029470;28;20032;-74
2022/10/24 12:33:21;;;;;;;7.85;3.88;;;15.90;99.90;;;;;;5026733;28;20045;-75
2022/10/24 12:35:51;;;;;;;9.63;3.58;;;15.80;99.90;;;;;;5032272;28;20502;-74
2022/10/24 12:38:37;;;;;;;8.15;4.32;;;15.80;99.90;;;;;;5004873;28;20022;-74
2022/10/24 12:41:13;;;;;;;8.27;4.00;;;15.80;99.90;;;;;;5014854;28;20026;-74
2022/10/24 12:43:43;;;;;;;10.93;4.68;;;15.90;99.90;;;;;;5014926;28;20092;-74
2022/10/24 12:46:15;;;;;;;7.07;3.80;;;15.90;99.90;;;;;;5007070;28;20083;-74
2022/10/24 12:48:56;;;;;;;7.70;4.32;;;15.80;99.90;;;;;;5019691;28;20483;-75
2022/10/24 12:51:31;;;;;;;10.70;4.22;;;15.90;99.90;;;;;;4996565;28;20080;-75
2022/10/24 12:54:02;;;;;;;8.53;5.00;;;16.00;99.90;;;;;;5021337;28;20022;-75
2022/10/24 12:56:30;;;;;;;12.85;7.72;;;16.00;99.90;;;;;;5033933;28;20098;-75
2022/10/24 12:59:00;;;;;;;10.52;5.88;;;16.00;99.90;;;;;;5034147;28;20045;-74
2022/10/24 13:01:30;;;;;;;8.40;4.50;;;15.90;99.90;;;;;;5015718;28;20033;-74